CheckWX is a tool to help pilots better visualize weather data.  It is not intended as a substitute for an official pre-flight weather briefing.

07:10:21 UTC

MHLC METAR
Goloson International Airport
La Ceiba, Honduras
Current

1 hour ago

MHLC 230600Z 00000KT 9999 FEW028 BKN200 26/24 Q1012 A2989 NOSIG
Observed
Sep-23 @ 06:00 UTC
Visibility
10,000+ meters
Flight Rules
VFR
Cloud Levels
  • Few at 2,800' AGL
  • Broken at 20,000' AGL
Temperature
26°C / 79°F
Dewpoint
24°C / 75°F
Humidity
89%
Altimeter
29.88" Hg
Pressure
1011.92 hPa
Previous

2 hours ago

MHLC 230500Z 00000KT 9999 FEW028 BKN200 26/24 Q1012 A2989 NOSIG
Observed
Sep-23 @ 05:00 UTC
Visibility
10,000+ meters
Flight Rules
VFR
Cloud Levels
  • Few at 2,800' AGL
  • Broken at 20,000' AGL
Temperature
26°C / 79°F
Dewpoint
24°C / 75°F
Humidity
89%
Altimeter
29.88" Hg
Pressure
1011.92 hPa
Previous

3 hours ago

MHLC 230400Z 00000KT 9999 FEW026CB BKN200 26/25 Q1013 A2992 NOSIG
Observed
Sep-23 @ 04:00 UTC
Visibility
10,000+ meters
Flight Rules
VFR
Cloud Levels
  • Few at 2,600' AGL
  • Broken at 20,000' AGL
Temperature
26°C / 79°F
Dewpoint
25°C / 77°F
Humidity
94%
Altimeter
29.91" Hg
Pressure
1012.92 hPa